Relevés horaires Semmerzake (Belgique)


Relevés horaires à Semmerzake - Samedi 13 Avr. 2024
Heure UTC1 Température [°C] Vent [km/h] Hum. [%] Pres.4 [hPa] Visi. [Km] Nébu. [octa] Préc.5 [mm] Cond.
2m. Res. Ros. Dir.2 Vit. Moy. Raf.3
23:00 12.6 12.6 4.4 OSO 5.6 -- 11.1 57 1022.1(0.9/3h) >70 -- -- --
22:00 14.3 14.2 4.6 SO 7.4 -- 14.8 52 1021.2(0.6/3h) >70 -- -- --
21:00 15.7 15.7 8.3 OSO 7.4 -- 20.4 61 1021.2(0.9/3h) >70 -- -- --
20:00 17.7 17.7 10.7 OSO 9.3 -- 14.8 64 1021(0.7/3h) >70 -- -- --
19:00 18.4 18.4 10.5 OSO 5.6 -- 20.4 60 1020.5(-0.1/3h) >70 -- -- --
18:00 20.7 20.7 13.8 OSO 7.4 -- 22.2 65 1020.2(-0.8/3h) >70 -- -- --
17:00 22.9 22.9 12.8 SO 7.4 -- 16.7 53 1020.1(-1.8/3h) >70 -- -- --
16:00 23.1 23.1 12.8 SO 11.1 -- 20.4 52 1020.5(-2.0/3h) >70 -- -- --
15:00 23.3 23.3 13.2 SSO 11.1 -- 22.2 53 1021(-2.3/3h) >70 -- -- --
14:00 22.9 22.9 12.3 SO 11.1 -- 18.5 51 1022(-2.1/3h) >70 -- -- --
13:00 22.8 22.8 12.6 SO 9.3 -- 22.2 53 1022.6(-2.0/3h) >70 -- -- --
12:00 22.0 22.0 12.6 SSO 13.0 -- 18.5 55 1023.3(-1.7/3h) >70 -- -- --
11:00 21.2 21.2 12.5 SSO 9.3 -- 18.5 58 1024.2(-1.4/3h) >70 -- -- --
10:00 20.3 20.3 13.2 SSO 9.3 -- 14.8 64 1024.5(-1.6/3h) >70 -- -- --
09:00 18.0 18.0 12.2 SSO 9.3 -- 13.0 69 1025.2(-1.0/3h) >70 -- -- --
08:00 16.2 16.2 11.8 SSO 7.4 -- 13.0 75 1025.7(-0.7/3h) 17 -- -- --
07:00 14.4 14.4 12.0 SSO 5.6 -- 9.3 85 1026.4(-0.2/3h) 45 -- -- --
06:00 12.8 12.8 11.4 S 3.7 -- 7.4 91 1026.2(-0.6/3h) 29 -- -- --
05:00 12.4 12.4 11.2 S 3.7 -- 5.6 92 1026.5(-0.8/3h) 19 -- -- --
04:00 12.4 12.4 11.2 S 3.7 -- 5.6 92 1026.7(-1.0/3h) 23 -- -- --
03:00 12.3 12.3 10.6 S 3.7 -- 7.4 89 1026.9(-1.1/3h) 35 -- -- --
02:00 11.9 11.9 10.7 NNO 1.9 -- 3.7 92 1027.4(-0.9/3h) 30 -- -- --
01:00 13.2 13.2 11.0 NNO 1.9 -- 7.4 87 1027.7(-0.8/3h) 14 -- -- --
00:00 14.3 14.3 11.3 SSO 3.7 -- 7.4 82 1028(-0.6/3h) 17 -- -- --

1 Coordinated Universal Time. Actuellement il est 13:00 locale et 11:00 UTC.

2 Le vent souffle depuis la direction indiquée vers la direction oposée.

3 Les rafales max. sont disponible 40 min après l'heure du relevé.

4 Pour les stations d'altitude (plus de 600m) le géopotentiel du niveau le plus proche de la pression obligatoire est indiqué.

5 Les stations disposant d'un diffuseur peuvent indiquer "trace". Cela signifie que des précipitations ont touchés le sol mais que la quantité est inférieure à 0.1 mm.

Récapitulatif de la journée
Température [°C] Vent [km/h] Ensoleillement4 [h] Precipitations totale5 [mm] Pression [Hpa]
Min1 Max.2 Moy.3 Max. Min Max.
11.8 23.7 0 22.2 0 h 0 min 0 1020.1 1028.0

1 Température minimale relevée entre 18:00 UTC la veille et 18:00 UTC le jour donné.

2 Température maximale relevée entre 06:00 UTC le jour donné et 06:00 UTC le lendemain.

3 Vent moyen de la journée basé sur les relevés horaires.

4 Ensoleillement en heures relevé entre 06:00 UTC la veille et 06:00 UTC le jour donné.

5 Précipitations totales tombées entre 06:00 UTC la jour donné et 06:00 UTC le lendemain.

Graphiques horaires